DLH2210 KJFK-KDEN
Flight info
| Callsign | DLH2210 |
|---|---|
| Flight time | N/A |
| Altitude | 38000 |
| Route | RBV Q430 ZANDR J80 BOWRR/N0494F400 J80 SPI IRK OBH BRWRY LAWGR3 |
| Aircraft | A388/J-SADE2E3FGHIJ3J4J5M1RWXY/LB1D1 |
Departure
| Time | N/A |
|---|---|
| Airport | John F. Kennedy International Airport (KJFK) |
Arrival
| Time | 2026-05-03 23:00 |
|---|---|
| Airport | Denver International Airport (KDEN) |
| Time | Latitude | Longitude | Altitude | Speed | Heading |
|---|---|---|---|---|---|
| 2026-05-03 20:50 | 39.83558 | -87.64789 | 37969 ft | 423 kts | 272° |
| 2026-05-03 20:50 | 39.83638 | -87.72442 | 37961 ft | 423 kts | 272° |
| 2026-05-03 20:51 | 39.83713 | -87.80105 | 37961 ft | 424 kts | 272° |
| 2026-05-03 20:51 | 39.83783 | -87.87773 | 37957 ft | 424 kts | 272° |
| 2026-05-03 20:52 | 39.83848 | -87.95403 | 37961 ft | 425 kts | 272° |
| 2026-05-03 20:52 | 39.83908 | -88.03109 | 37950 ft | 427 kts | 272° |
| 2026-05-03 20:53 | 39.83963 | -88.10854 | 37953 ft | 428 kts | 272° |
| 2026-05-03 20:53 | 39.84014 | -88.18619 | 37957 ft | 430 kts | 272° |
| 2026-05-03 20:54 | 39.84061 | -88.26407 | 37953 ft | 431 kts | 272° |
| 2026-05-03 20:54 | 39.84123 | -88.38132 | 37954 ft | 432 kts | 272° |
| 2026-05-03 20:55 | 39.84157 | -88.45947 | 37958 ft | 432 kts | 272° |
| 2026-05-03 20:55 | 39.84187 | -88.53771 | 37960 ft | 432 kts | 272° |
| 2026-05-03 20:56 | 39.84207 | -88.61590 | 37937 ft | 432 kts | 272° |
| 2026-05-03 20:56 | 39.84223 | -88.69355 | 37928 ft | 432 kts | 272° |
| 2026-05-03 20:57 | 39.84233 | -88.77178 | 37932 ft | 432 kts | 272° |
| 2026-05-03 20:57 | 39.84239 | -88.85001 | 37915 ft | 432 kts | 272° |
| 2026-05-03 20:58 | 39.84239 | -88.92835 | 37921 ft | 433 kts | 272° |
| 2026-05-03 20:58 | 39.84234 | -89.00659 | 37936 ft | 433 kts | 272° |
| 2026-05-03 20:59 | 39.84224 | -89.08496 | 37935 ft | 433 kts | 272° |
| 2026-05-03 20:59 | 39.84208 | -89.16336 | 37933 ft | 433 kts | 272° |
| 2026-05-03 21:00 | 39.84191 | -89.22860 | 37929 ft | 433 kts | 272° |
| 2026-05-03 21:00 | 39.84161 | -89.32026 | 37930 ft | 434 kts | 272° |
| 2026-05-03 21:01 | 39.84129 | -89.39869 | 37920 ft | 433 kts | 272° |
| 2026-05-03 21:01 | 39.84092 | -89.47703 | 37915 ft | 433 kts | 272° |
| 2026-05-03 21:02 | 39.84051 | -89.55477 | 37907 ft | 432 kts | 272° |
| 2026-05-03 21:02 | 39.84004 | -89.63296 | 37907 ft | 432 kts | 272° |
| 2026-05-03 21:03 | 39.84334 | -89.71061 | 37906 ft | 429 kts | 279° |
| 2026-05-03 21:03 | 39.85225 | -89.78725 | 37899 ft | 428 kts | 280° |
| 2026-05-03 21:04 | 39.86089 | -89.86385 | 37900 ft | 428 kts | 280° |
| 2026-05-03 21:04 | 39.86949 | -89.94049 | 37895 ft | 428 kts | 280° |
| 2026-05-03 21:05 | 39.87803 | -90.01706 | 37903 ft | 427 kts | 280° |
| 2026-05-03 21:05 | 39.88653 | -90.09356 | 37903 ft | 427 kts | 280° |
| 2026-05-03 21:06 | 39.89497 | -90.17008 | 37895 ft | 427 kts | 280° |
| 2026-05-03 21:06 | 39.90336 | -90.24665 | 37890 ft | 427 kts | 280° |
| 2026-05-03 21:07 | 39.91170 | -90.32324 | 37895 ft | 427 kts | 280° |
| 2026-05-03 21:07 | 39.91994 | -90.39940 | 37887 ft | 427 kts | 280° |
| 2026-05-03 21:08 | 39.92819 | -90.47616 | 37891 ft | 427 kts | 280° |
| 2026-05-03 21:08 | 39.93638 | -90.55277 | 37889 ft | 427 kts | 280° |
| 2026-05-03 21:09 | 39.94452 | -90.62950 | 37895 ft | 427 kts | 280° |
| 2026-05-03 21:09 | 39.95260 | -90.70609 | 37895 ft | 427 kts | 280° |
| 2026-05-03 21:10 | 39.96063 | -90.78271 | 37898 ft | 426 kts | 280° |
| 2026-05-03 21:10 | 39.96859 | -90.85921 | 37901 ft | 426 kts | 280° |
| 2026-05-03 21:11 | 39.97650 | -90.93567 | 37898 ft | 425 kts | 280° |
| 2026-05-03 21:11 | 39.98436 | -91.01212 | 37898 ft | 425 kts | 280° |
| 2026-05-03 21:12 | 39.99215 | -91.08849 | 37898 ft | 425 kts | 280° |
| 2026-05-03 21:12 | 39.99984 | -91.16433 | 37898 ft | 424 kts | 280° |
| 2026-05-03 21:13 | 40.00751 | -91.24051 | 37894 ft | 424 kts | 280° |
| 2026-05-03 21:13 | 40.01514 | -91.31675 | 37896 ft | 423 kts | 280° |
| 2026-05-03 21:14 | 40.02271 | -91.39292 | 37896 ft | 423 kts | 280° |
| 2026-05-03 21:14 | 40.03022 | -91.46898 | 37893 ft | 422 kts | 280° |
| 2026-05-03 21:15 | 40.03766 | -91.54495 | 37895 ft | 422 kts | 280° |
| 2026-05-03 21:15 | 40.04504 | -91.62076 | 37896 ft | 421 kts | 280° |
| 2026-05-03 21:16 | 40.05237 | -91.69666 | 37897 ft | 421 kts | 280° |
| 2026-05-03 21:16 | 40.05965 | -91.77242 | 37899 ft | 420 kts | 280° |
| 2026-05-03 21:17 | 40.06565 | -91.83533 | 37895 ft | 420 kts | 280° |
| 2026-05-03 21:17 | 40.07402 | -91.92374 | 37899 ft | 420 kts | 280° |
| 2026-05-03 21:18 | 40.08113 | -91.99934 | 37899 ft | 419 kts | 280° |
| 2026-05-03 21:18 | 40.08813 | -92.07443 | 37898 ft | 419 kts | 280° |
| 2026-05-03 21:19 | 40.09513 | -92.14996 | 37902 ft | 419 kts | 280° |
| 2026-05-03 21:19 | 40.10208 | -92.22554 | 37901 ft | 418 kts | 280° |
| 2026-05-03 21:20 | 40.10897 | -92.30100 | 37899 ft | 418 kts | 280° |
| 2026-05-03 21:20 | 40.11581 | -92.37645 | 37898 ft | 418 kts | 280° |
| 2026-05-03 21:21 | 40.12259 | -92.45180 | 37894 ft | 417 kts | 280° |
| 2026-05-03 21:21 | 40.12933 | -92.52708 | 37896 ft | 417 kts | 280° |
| 2026-05-03 21:22 | 40.13832 | -92.60164 | 37894 ft | 414 kts | 286° |
| 2026-05-03 21:22 | 40.15505 | -92.67360 | 37894 ft | 413 kts | 289° |
| 2026-05-03 21:23 | 40.17240 | -92.74515 | 37900 ft | 413 kts | 289° |
| 2026-05-03 21:23 | 40.18966 | -92.81638 | 37903 ft | 413 kts | 289° |
| 2026-05-03 21:24 | 40.20701 | -92.88793 | 37908 ft | 413 kts | 289° |
| 2026-05-03 21:24 | 40.22428 | -92.95940 | 37908 ft | 412 kts | 289° |
| 2026-05-03 21:25 | 40.24151 | -93.03108 | 37906 ft | 412 kts | 289° |
| 2026-05-03 21:25 | 40.25867 | -93.10267 | 37908 ft | 412 kts | 289° |
| 2026-05-03 21:26 | 40.27578 | -93.17431 | 37905 ft | 412 kts | 289° |
| 2026-05-03 21:26 | 40.29284 | -93.24595 | 37905 ft | 412 kts | 289° |
| 2026-05-03 21:27 | 40.30986 | -93.31762 | 37903 ft | 412 kts | 289° |
| 2026-05-03 21:27 | 40.32396 | -93.37719 | 37907 ft | 412 kts | 289° |
| 2026-05-03 21:28 | 40.34087 | -93.44880 | 37905 ft | 411 kts | 289° |
| 2026-05-03 21:28 | 40.35772 | -93.52042 | 37906 ft | 411 kts | 289° |
| 2026-05-03 21:29 | 40.37454 | -93.59211 | 37910 ft | 411 kts | 289° |
| 2026-05-03 21:29 | 40.39130 | -93.66378 | 37902 ft | 411 kts | 289° |
| 2026-05-03 21:30 | 40.40801 | -93.73546 | 37904 ft | 411 kts | 289° |
| 2026-05-03 21:30 | 40.42469 | -93.80721 | 37907 ft | 411 kts | 289° |
| 2026-05-03 21:31 | 40.44129 | -93.87889 | 37907 ft | 410 kts | 288° |
| 2026-05-03 21:31 | 40.45786 | -93.95060 | 37905 ft | 410 kts | 288° |
| 2026-05-03 21:32 | 40.47438 | -94.02237 | 37906 ft | 410 kts | 288° |
| 2026-05-03 21:32 | 40.49082 | -94.09402 | 37907 ft | 410 kts | 288° |
| 2026-05-03 21:33 | 40.50712 | -94.16528 | 37903 ft | 410 kts | 288° |
| 2026-05-03 21:33 | 40.52348 | -94.23706 | 37901 ft | 409 kts | 288° |
| 2026-05-03 21:34 | 40.53976 | -94.30867 | 37901 ft | 409 kts | 288° |
| 2026-05-03 21:34 | 40.55602 | -94.38042 | 37905 ft | 409 kts | 288° |
| 2026-05-03 21:35 | 40.57222 | -94.45215 | 37904 ft | 409 kts | 288° |
| 2026-05-03 21:35 | 40.58836 | -94.52388 | 37907 ft | 409 kts | 288° |
| 2026-05-03 21:36 | 40.60445 | -94.59555 | 37902 ft | 409 kts | 288° |
| 2026-05-03 21:36 | 40.62048 | -94.66725 | 37904 ft | 408 kts | 288° |
| 2026-05-03 21:37 | 40.63648 | -94.73903 | 37907 ft | 408 kts | 288° |
| 2026-05-03 21:37 | 40.65244 | -94.81085 | 37908 ft | 408 kts | 288° |
| 2026-05-03 21:38 | 40.66834 | -94.88264 | 37912 ft | 408 kts | 288° |
| 2026-05-03 21:38 | 40.68419 | -94.95442 | 37918 ft | 408 kts | 288° |
| 2026-05-03 21:39 | 40.70000 | -95.02630 | 37913 ft | 408 kts | 288° |
| 2026-05-03 21:39 | 40.71575 | -95.09811 | 37916 ft | 408 kts | 288° |
| 2026-05-03 21:40 | 40.73139 | -95.16965 | 37916 ft | 408 kts | 288° |
| 2026-05-03 21:40 | 40.74705 | -95.24154 | 37893 ft | 408 kts | 287° |
| 2026-05-03 21:41 | 40.76269 | -95.31353 | 37891 ft | 408 kts | 287° |
| 2026-05-03 21:41 | 40.77830 | -95.38567 | 37892 ft | 408 kts | 287° |
| 2026-05-03 21:42 | 40.79381 | -95.45759 | 37885 ft | 407 kts | 287° |
| 2026-05-03 21:42 | 40.80927 | -95.52950 | 37886 ft | 407 kts | 287° |
| 2026-05-03 21:43 | 40.82458 | -95.60098 | 37888 ft | 407 kts | 287° |
| 2026-05-03 21:43 | 40.83993 | -95.67288 | 37888 ft | 407 kts | 287° |
| 2026-05-03 21:44 | 40.85524 | -95.74480 | 37907 ft | 407 kts | 287° |
| 2026-05-03 21:44 | 40.87049 | -95.81672 | 37915 ft | 407 kts | 287° |
| 2026-05-03 21:45 | 40.88572 | -95.88872 | 37911 ft | 407 kts | 287° |
| 2026-05-03 21:45 | 40.90089 | -95.96075 | 37909 ft | 407 kts | 287° |
| 2026-05-03 21:46 | 40.91602 | -96.03281 | 37905 ft | 407 kts | 287° |
| 2026-05-03 21:46 | 40.93101 | -96.10447 | 37903 ft | 407 kts | 287° |
| 2026-05-03 21:47 | 40.94604 | -96.17653 | 37911 ft | 407 kts | 287° |
| 2026-05-03 21:47 | 40.96103 | -96.24870 | 37909 ft | 407 kts | 287° |
| 2026-05-03 21:48 | 40.97599 | -96.32090 | 37899 ft | 407 kts | 286° |
| 2026-05-03 21:48 | 40.99087 | -96.39305 | 37901 ft | 407 kts | 286° |
| 2026-05-03 21:49 | 41.00573 | -96.46530 | 37908 ft | 406 kts | 286° |
| 2026-05-03 21:49 | 41.02054 | -96.53759 | 37909 ft | 407 kts | 286° |
| 2026-05-03 21:50 | 41.03530 | -96.60987 | 37893 ft | 407 kts | 286° |
| 2026-05-03 21:50 | 41.04993 | -96.68178 | 37908 ft | 407 kts | 286° |
| 2026-05-03 21:51 | 41.06460 | -96.75413 | 37905 ft | 407 kts | 286° |
| 2026-05-03 21:51 | 41.07922 | -96.82648 | 37912 ft | 407 kts | 286° |
| 2026-05-03 21:52 | 41.09381 | -96.89894 | 37917 ft | 407 kts | 286° |
| 2026-05-03 21:52 | 41.10835 | -96.97138 | 37910 ft | 407 kts | 286° |
| 2026-05-03 21:53 | 41.12286 | -97.04398 | 37903 ft | 407 kts | 286° |
| 2026-05-03 21:53 | 41.13732 | -97.11660 | 37913 ft | 407 kts | 285° |
| 2026-05-03 21:54 | 41.15176 | -97.18933 | 37920 ft | 407 kts | 285° |
| 2026-05-03 21:54 | 41.16615 | -97.26211 | 37923 ft | 408 kts | 285° |
| 2026-05-03 21:55 | 41.18050 | -97.33493 | 37920 ft | 408 kts | 285° |
| 2026-05-03 21:55 | 41.19480 | -97.40778 | 37918 ft | 408 kts | 285° |
| 2026-05-03 21:56 | 41.20908 | -97.48075 | 37922 ft | 408 kts | 285° |
| 2026-05-03 21:56 | 41.22320 | -97.55320 | 37910 ft | 408 kts | 285° |
| 2026-05-03 21:57 | 41.23740 | -97.62631 | 37920 ft | 409 kts | 285° |
| 2026-05-03 21:57 | 41.25156 | -97.69949 | 37919 ft | 409 kts | 285° |
| 2026-05-03 21:58 | 41.26566 | -97.77266 | 37916 ft | 409 kts | 285° |
| 2026-05-03 21:58 | 41.27975 | -97.84604 | 37912 ft | 409 kts | 285° |
| 2026-05-03 21:59 | 41.29379 | -97.91942 | 37923 ft | 410 kts | 285° |
| 2026-05-03 21:59 | 41.30779 | -97.99287 | 37915 ft | 410 kts | 285° |
| 2026-05-03 22:00 | 41.32176 | -98.06644 | 37920 ft | 410 kts | 285° |
| 2026-05-03 22:00 | 41.33570 | -98.14007 | 37920 ft | 410 kts | 285° |
| 2026-05-03 22:01 | 41.34962 | -98.21371 | 37918 ft | 410 kts | 285° |
| 2026-05-03 22:01 | 41.36265 | -98.28781 | 37913 ft | 411 kts | 280° |
| 2026-05-03 22:02 | 41.36492 | -98.36405 | 37913 ft | 415 kts | 269° |
| 2026-05-03 22:02 | 41.35466 | -98.43964 | 37920 ft | 422 kts | 257° |
| 2026-05-03 22:03 | 41.33627 | -98.51405 | 37915 ft | 423 kts | 257° |
| 2026-05-03 22:03 | 41.31817 | -98.58847 | 37920 ft | 423 kts | 257° |
| 2026-05-03 22:04 | 41.29990 | -98.66291 | 37920 ft | 423 kts | 257° |
| 2026-05-03 22:04 | 41.28152 | -98.73729 | 37882 ft | 423 kts | 257° |
| 2026-05-03 22:05 | 41.26305 | -98.81177 | 37937 ft | 424 kts | 257° |
| 2026-05-03 22:05 | 41.24453 | -98.88621 | 37935 ft | 424 kts | 257° |
| 2026-05-03 22:06 | 41.22596 | -98.96063 | 37912 ft | 424 kts | 257° |
| 2026-05-03 22:06 | 41.20734 | -99.03502 | 37915 ft | 424 kts | 257° |
| 2026-05-03 22:07 | 41.18866 | -99.10942 | 37921 ft | 425 kts | 257° |
| 2026-05-03 22:07 | 41.16991 | -99.18388 | 37906 ft | 425 kts | 256° |
| 2026-05-03 22:08 | 41.15123 | -99.25779 | 37902 ft | 425 kts | 256° |
| 2026-05-03 22:08 | 41.13223 | -99.33277 | 37905 ft | 426 kts | 256° |
| 2026-05-03 22:09 | 41.11341 | -99.40681 | 37891 ft | 426 kts | 256° |
| 2026-05-03 22:10 | 41.08487 | -99.51863 | 37892 ft | 427 kts | 256° |
| 2026-05-03 22:10 | 41.06577 | -99.59315 | 37895 ft | 427 kts | 256° |
| 2026-05-03 22:11 | 41.04660 | -99.66776 | 37897 ft | 428 kts | 256° |
| 2026-05-03 22:11 | 41.02738 | -99.74233 | 37902 ft | 428 kts | 256° |
| 2026-05-03 22:12 | 41.00805 | -99.81706 | 37898 ft | 429 kts | 256° |
| 2026-05-03 22:12 | 40.98868 | -99.89173 | 37899 ft | 429 kts | 256° |
| 2026-05-03 22:13 | 40.96924 | -99.96644 | 37896 ft | 430 kts | 256° |
| 2026-05-03 22:13 | 40.94971 | -100.04125 | 37895 ft | 430 kts | 256° |
| 2026-05-03 22:14 | 40.93344 | -100.10344 | 37892 ft | 431 kts | 255° |
| 2026-05-03 22:14 | 40.91379 | -100.17828 | 37892 ft | 431 kts | 255° |
| 2026-05-03 22:15 | 40.89407 | -100.25320 | 37886 ft | 432 kts | 255° |
| 2026-05-03 22:15 | 40.87427 | -100.32818 | 37892 ft | 432 kts | 255° |
| 2026-05-03 22:16 | 40.85439 | -100.40323 | 37889 ft | 433 kts | 255° |
| 2026-05-03 22:16 | 40.83458 | -100.47777 | 37892 ft | 433 kts | 255° |
| 2026-05-03 22:17 | 40.81456 | -100.55290 | 37889 ft | 434 kts | 255° |
| 2026-05-03 22:17 | 40.79449 | -100.62803 | 37892 ft | 434 kts | 255° |
| 2026-05-03 22:18 | 40.77830 | -100.70439 | 37885 ft | 431 kts | 261° |
| 2026-05-03 22:18 | 40.76544 | -100.78170 | 37892 ft | 432 kts | 261° |
| 2026-05-03 22:19 | 40.75234 | -100.85907 | 37886 ft | 432 kts | 261° |
| 2026-05-03 22:19 | 40.73912 | -100.93648 | 37891 ft | 433 kts | 261° |
| 2026-05-03 22:20 | 40.72582 | -101.01405 | 37889 ft | 434 kts | 261° |
| 2026-05-03 22:20 | 40.71244 | -101.09175 | 37890 ft | 435 kts | 261° |
| 2026-05-03 22:21 | 40.69906 | -101.16895 | 37888 ft | 435 kts | 260° |
| 2026-05-03 22:21 | 40.68545 | -101.24671 | 37894 ft | 436 kts | 260° |
| 2026-05-03 22:22 | 40.67169 | -101.32508 | 37903 ft | 436 kts | 260° |
| 2026-05-03 22:22 | 40.65803 | -101.40255 | 37912 ft | 437 kts | 260° |
| 2026-05-03 22:23 | 40.64422 | -101.48057 | 37925 ft | 438 kts | 260° |
| 2026-05-03 22:23 | 40.63033 | -101.55876 | 37923 ft | 439 kts | 260° |
| 2026-05-03 22:24 | 40.61637 | -101.63699 | 37929 ft | 439 kts | 259° |
| 2026-05-03 22:24 | 40.60232 | -101.71535 | 37937 ft | 440 kts | 259° |
| 2026-05-03 22:25 | 40.58821 | -101.79371 | 37924 ft | 441 kts | 259° |
| 2026-05-03 22:25 | 40.57403 | -101.87214 | 37722 ft | 439 kts | 259° |
| 2026-05-03 22:26 | 40.55975 | -101.95091 | 37892 ft | 448 kts | 259° |
| 2026-05-03 22:26 | 40.54529 | -102.02985 | 37897 ft | 442 kts | 259° |
| 2026-05-03 22:27 | 40.53069 | -102.10843 | 37890 ft | 443 kts | 259° |
| 2026-05-03 22:27 | 40.51603 | -102.18715 | 37885 ft | 444 kts | 259° |
| 2026-05-03 22:28 | 40.50132 | -102.26588 | 37890 ft | 444 kts | 259° |
| 2026-05-03 22:28 | 40.48654 | -102.34467 | 37838 ft | 443 kts | 259° |
| 2026-05-03 22:28 | 40.47916 | -102.38385 | 37383 ft | 441 kts | 258° |
| 2026-05-03 22:29 | 40.47185 | -102.42269 | 36411 ft | 446 kts | 258° |
| 2026-05-03 22:29 | 40.46433 | -102.46253 | 35207 ft | 454 kts | 258° |
| 2026-05-03 22:29 | 40.45669 | -102.50298 | 33758 ft | 461 kts | 258° |
| 2026-05-03 22:29 | 40.44893 | -102.54386 | 32539 ft | 459 kts | 258° |
| 2026-05-03 22:30 | 40.44122 | -102.58428 | 31731 ft | 450 kts | 258° |
| 2026-05-03 22:30 | 40.43377 | -102.62320 | 31466 ft | 430 kts | 258° |
| 2026-05-03 22:30 | 40.42662 | -102.66047 | 31220 ft | 413 kts | 258° |
| 2026-05-03 22:30 | 40.41965 | -102.69691 | 31012 ft | 411 kts | 258° |
| 2026-05-03 22:31 | 40.41264 | -102.73346 | 30899 ft | 416 kts | 258° |
| 2026-05-03 22:31 | 40.40557 | -102.77023 | 30660 ft | 414 kts | 258° |
| 2026-05-03 22:31 | 40.39851 | -102.80674 | 30275 ft | 412 kts | 258° |
| 2026-05-03 22:31 | 40.39149 | -102.84300 | 29864 ft | 408 kts | 258° |
| 2026-05-03 22:32 | 40.38451 | -102.87896 | 29454 ft | 405 kts | 258° |
| 2026-05-03 22:32 | 40.37758 | -102.91466 | 29071 ft | 403 kts | 258° |
| 2026-05-03 22:32 | 40.37065 | -102.95030 | 28684 ft | 402 kts | 258° |
| 2026-05-03 22:32 | 40.36376 | -102.98564 | 28305 ft | 400 kts | 258° |
| 2026-05-03 22:33 | 40.35687 | -103.02095 | 27922 ft | 398 kts | 258° |
| 2026-05-03 22:33 | 40.35013 | -103.05557 | 27539 ft | 396 kts | 258° |
| 2026-05-03 22:33 | 40.34327 | -103.09088 | 27166 ft | 394 kts | 258° |
| 2026-05-03 22:33 | 40.33660 | -103.12515 | 26794 ft | 392 kts | 258° |
| 2026-05-03 22:34 | 40.32985 | -103.15976 | 26430 ft | 391 kts | 258° |
| 2026-05-03 22:34 | 40.32311 | -103.19425 | 26053 ft | 389 kts | 258° |
| 2026-05-03 22:34 | 40.31641 | -103.22849 | 25678 ft | 387 kts | 258° |
| 2026-05-03 22:34 | 40.30972 | -103.26257 | 25302 ft | 386 kts | 258° |
| 2026-05-03 22:35 | 40.30303 | -103.29659 | 24928 ft | 384 kts | 258° |
| 2026-05-03 22:35 | 40.29632 | -103.33039 | 24553 ft | 383 kts | 258° |
| 2026-05-03 22:35 | 40.28960 | -103.36405 | 24178 ft | 381 kts | 258° |
| 2026-05-03 22:35 | 40.28291 | -103.39754 | 23798 ft | 380 kts | 258° |
| 2026-05-03 22:36 | 40.27622 | -103.43100 | 23413 ft | 378 kts | 258° |
| 2026-05-03 22:36 | 40.26957 | -103.46424 | 23010 ft | 376 kts | 258° |
| 2026-05-03 22:36 | 40.26294 | -103.49732 | 22645 ft | 375 kts | 258° |
| 2026-05-03 22:36 | 40.25634 | -103.53022 | 22266 ft | 373 kts | 258° |
| 2026-05-03 22:37 | 40.24974 | -103.56308 | 21909 ft | 372 kts | 258° |
| 2026-05-03 22:37 | 40.24320 | -103.59576 | 21625 ft | 370 kts | 258° |
| 2026-05-03 22:37 | 40.23677 | -103.62832 | 21350 ft | 370 kts | 258° |
| 2026-05-03 22:37 | 40.23036 | -103.66087 | 21066 ft | 369 kts | 258° |
| 2026-05-03 22:38 | 40.22394 | -103.69334 | 20790 ft | 368 kts | 257° |
| 2026-05-03 22:38 | 40.21752 | -103.72567 | 20509 ft | 367 kts | 257° |
| 2026-05-03 22:38 | 40.21118 | -103.75751 | 20232 ft | 365 kts | 257° |
| 2026-05-03 22:38 | 40.20484 | -103.78926 | 20119 ft | 356 kts | 257° |
| 2026-05-03 22:39 | 40.19868 | -103.81998 | 19990 ft | 343 kts | 257° |
| 2026-05-03 22:39 | 40.19276 | -103.84951 | 19793 ft | 328 kts | 257° |
| 2026-05-03 22:39 | 40.18698 | -103.87838 | 19261 ft | 328 kts | 257° |
| 2026-05-03 22:39 | 40.17999 | -103.90691 | 18760 ft | 331 kts | 249° |
| 2026-05-03 22:40 | 40.16959 | -103.93349 | 18559 ft | 326 kts | 240° |
| 2026-05-03 22:40 | 40.15747 | -103.95844 | 18444 ft | 325 kts | 240° |
| 2026-05-03 22:40 | 40.14558 | -103.98352 | 18283 ft | 324 kts | 240° |
| 2026-05-03 22:40 | 40.13381 | -104.00859 | 18062 ft | 323 kts | 240° |
| 2026-05-03 22:41 | 40.12202 | -104.03366 | 17846 ft | 323 kts | 240° |
| 2026-05-03 22:41 | 40.11028 | -104.05855 | 17652 ft | 321 kts | 240° |
| 2026-05-03 22:41 | 40.09857 | -104.08335 | 17432 ft | 320 kts | 240° |
| 2026-05-03 22:41 | 40.08689 | -104.10804 | 17219 ft | 319 kts | 240° |
| 2026-05-03 22:42 | 40.07531 | -104.13244 | 17008 ft | 318 kts | 240° |
| 2026-05-03 22:42 | 40.06353 | -104.15725 | 16812 ft | 317 kts | 240° |
| 2026-05-03 22:42 | 40.05188 | -104.18178 | 16478 ft | 318 kts | 240° |
| 2026-05-03 22:42 | 40.04032 | -104.20613 | 16153 ft | 315 kts | 240° |
| 2026-05-03 22:43 | 40.02880 | -104.23036 | 15848 ft | 313 kts | 240° |
| 2026-05-03 22:43 | 40.01735 | -104.25440 | 15539 ft | 312 kts | 240° |
| 2026-05-03 22:43 | 40.00595 | -104.27834 | 15246 ft | 311 kts | 240° |
| 2026-05-03 22:43 | 39.99471 | -104.30187 | 14943 ft | 308 kts | 240° |
| 2026-05-03 22:44 | 39.98339 | -104.32556 | 14646 ft | 307 kts | 240° |
| 2026-05-03 22:44 | 39.97215 | -104.34910 | 14366 ft | 306 kts | 240° |
| 2026-05-03 22:44 | 39.96092 | -104.37260 | 14056 ft | 305 kts | 240° |
| 2026-05-03 22:44 | 39.94966 | -104.39604 | 13754 ft | 303 kts | 240° |
| 2026-05-03 22:45 | 39.93852 | -104.41928 | 13445 ft | 302 kts | 240° |
| 2026-05-03 22:45 | 39.92742 | -104.44248 | 13142 ft | 300 kts | 240° |
| 2026-05-03 22:45 | 39.91640 | -104.46555 | 12833 ft | 299 kts | 240° |
| 2026-05-03 22:45 | 39.90354 | -104.48674 | 12546 ft | 300 kts | 221° |
| 2026-05-03 22:46 | 39.88541 | -104.49911 | 12473 ft | 293 kts | 196° |
| 2026-05-03 22:46 | 39.86542 | -104.50133 | 12401 ft | 285 kts | 182° |
| 2026-05-03 22:46 | 39.84599 | -104.50110 | 12304 ft | 274 kts | 181° |
| 2026-05-03 22:46 | 39.82727 | -104.50088 | 12205 ft | 264 kts | 182° |
| 2026-05-03 22:47 | 39.80897 | -104.50087 | 11964 ft | 263 kts | 182° |
| 2026-05-03 22:47 | 39.79070 | -104.50102 | 11649 ft | 263 kts | 182° |
| 2026-05-03 22:47 | 39.77244 | -104.50113 | 11427 ft | 261 kts | 182° |
| 2026-05-03 22:47 | 39.75434 | -104.50117 | 11157 ft | 259 kts | 182° |
| 2026-05-03 22:48 | 39.73638 | -104.50115 | 11006 ft | 255 kts | 182° |
| 2026-05-03 22:48 | 39.71873 | -104.50112 | 11000 ft | 252 kts | 182° |
| 2026-05-03 22:48 | 39.70123 | -104.50113 | 11015 ft | 253 kts | 182° |
| 2026-05-03 22:48 | 39.68361 | -104.50122 | 11002 ft | 253 kts | 182° |
| 2026-05-03 22:49 | 39.66601 | -104.50133 | 10992 ft | 253 kts | 182° |
| 2026-05-03 22:49 | 39.64849 | -104.50141 | 10985 ft | 253 kts | 182° |
| 2026-05-03 22:49 | 39.63088 | -104.50150 | 10971 ft | 253 kts | 182° |
| 2026-05-03 22:49 | 39.61355 | -104.50162 | 10964 ft | 252 kts | 182° |
| 2026-05-03 22:50 | 39.59603 | -104.50171 | 10948 ft | 252 kts | 182° |
| 2026-05-03 22:50 | 39.57856 | -104.50186 | 10945 ft | 251 kts | 182° |
| 2026-05-03 22:50 | 39.56105 | -104.50206 | 10942 ft | 252 kts | 181° |
| 2026-05-03 22:50 | 39.54355 | -104.50208 | 10932 ft | 251 kts | 181° |
| 2026-05-03 22:51 | 39.52609 | -104.50207 | 10925 ft | 250 kts | 181° |
| 2026-05-03 22:51 | 39.50867 | -104.50209 | 10918 ft | 251 kts | 181° |
| 2026-05-03 22:51 | 39.49114 | -104.50214 | 10931 ft | 258 kts | 181° |
| 2026-05-03 22:51 | 39.47181 | -104.50428 | 10868 ft | 300 kts | 196° |
| 2026-05-03 22:52 | 39.45219 | -104.51693 | 10651 ft | 332 kts | 219° |
| 2026-05-03 22:52 | 39.43700 | -104.53925 | 10430 ft | 341 kts | 240° |
| 2026-05-03 22:52 | 39.42915 | -104.56826 | 10322 ft | 333 kts | 262° |
| 2026-05-03 22:52 | 39.43035 | -104.59733 | 10182 ft | 317 kts | 285° |
| 2026-05-03 22:53 | 39.43982 | -104.62199 | 10014 ft | 300 kts | 309° |
| 2026-05-03 22:53 | 39.45560 | -104.63823 | 9970 ft | 284 kts | 336° |
| 2026-05-03 22:53 | 39.47442 | -104.64382 | 9993 ft | 279 kts | 356° |
| 2026-05-03 22:53 | 39.49392 | -104.64518 | 9972 ft | 282 kts | 352° |
| 2026-05-03 22:54 | 39.51284 | -104.65119 | 9983 ft | 278 kts | 338° |
| 2026-05-03 22:54 | 39.53031 | -104.66005 | 9988 ft | 262 kts | 345° |
| 2026-05-03 22:54 | 39.54752 | -104.66340 | 9993 ft | 245 kts | 356° |
| 2026-05-03 22:54 | 39.56398 | -104.66361 | 9987 ft | 228 kts | 1° |
| 2026-05-03 22:55 | 39.57893 | -104.66330 | 9967 ft | 206 kts | 360° |
| 2026-05-03 22:55 | 39.59328 | -104.66318 | 9878 ft | 208 kts | 360° |
| 2026-05-03 22:55 | 39.60778 | -104.66302 | 9586 ft | 208 kts | 360° |
| 2026-05-03 22:55 | 39.62217 | -104.66286 | 9295 ft | 206 kts | 0° |
| 2026-05-03 22:56 | 39.63616 | -104.66270 | 9026 ft | 194 kts | 0° |
| 2026-05-03 22:56 | 39.64935 | -104.66254 | 8766 ft | 183 kts | 0° |
| 2026-05-03 22:56 | 39.66160 | -104.66241 | 8523 ft | 170 kts | 360° |
| 2026-05-03 22:56 | 39.67323 | -104.66229 | 8300 ft | 166 kts | 0° |
| 2026-05-03 22:57 | 39.68467 | -104.66216 | 8088 ft | 163 kts | 0° |
| 2026-05-03 22:57 | 39.69593 | -104.66206 | 7878 ft | 162 kts | 0° |
| 2026-05-03 22:57 | 39.70720 | -104.66191 | 7655 ft | 162 kts | 1° |
| 2026-05-03 22:57 | 39.71844 | -104.66177 | 7458 ft | 161 kts | 0° |
| 2026-05-03 22:58 | 39.72967 | -104.66163 | 7257 ft | 162 kts | 1° |
| 2026-05-03 22:58 | 39.74094 | -104.66156 | 7051 ft | 162 kts | 1° |
| 2026-05-03 22:58 | 39.75218 | -104.66136 | 6851 ft | 160 kts | 1° |
| 2026-05-03 22:58 | 39.76333 | -104.66126 | 6634 ft | 160 kts | 1° |
| 2026-05-03 22:59 | 39.77443 | -104.66114 | 6447 ft | 160 kts | 1° |
| 2026-05-03 22:59 | 39.78542 | -104.66103 | 6267 ft | 160 kts | 2° |
| 2026-05-03 22:59 | 39.79659 | -104.66072 | 6069 ft | 157 kts | 1° |
| 2026-05-03 22:59 | 39.80755 | -104.66039 | 5918 ft | 157 kts | 356° |
| 2026-05-03 23:00 | 39.81839 | -104.66054 | 5687 ft | 151 kts | 354° |
| 2026-05-03 23:00 | 39.82903 | -104.66050 | 5489 ft | 154 kts | 354° |
| 2026-05-03 23:00 | 39.83860 | -104.66063 | 5414 ft | 115 kts | 0° |
| 2026-05-03 23:00 | 39.84406 | -104.66042 | 5416 ft | 42 kts | 1° |
| 2026-05-03 23:01 | 39.84514 | -104.66041 | 5413 ft | 21 kts | 0° |
| 2026-05-03 23:01 | 39.84826 | -104.66104 | 5401 ft | 26 kts | 335° |
| 2026-05-03 23:01 | 39.84952 | -104.66196 | 5402 ft | 20 kts | 329° |
| 2026-05-03 23:01 | 39.85060 | -104.66244 | 5400 ft | 12 kts | 356° |
| 2026-05-03 23:02 | 39.85152 | -104.66253 | 5399 ft | 11 kts | 0° |
| 2026-05-03 23:02 | 39.85175 | -104.66252 | 5398 ft | 6 kts | 1° |
| 2026-05-03 23:02 | 39.85230 | -104.66251 | 5399 ft | 10 kts | 1° |
| 2026-05-03 23:02 | 39.85294 | -104.66252 | 5398 ft | 9 kts | 358° |
| 2026-05-03 23:03 | 39.85363 | -104.66251 | 5393 ft | 11 kts | 1° |
| 2026-05-03 23:03 | 39.85418 | -104.66250 | 5400 ft | 13 kts | 1° |
| 2026-05-03 23:03 | 39.85517 | -104.66250 | 5394 ft | 16 kts | 359° |
| 2026-05-03 23:03 | 39.85569 | -104.66250 | 5396 ft | 0 kts | 354° |
| 2026-05-03 23:04 | 39.85579 | -104.66255 | 5396 ft | 2 kts | 315° |
| 2026-05-03 23:04 | 39.85585 | -104.66279 | 5388 ft | 7 kts | 276° |
| 2026-05-03 23:04 | 39.85587 | -104.66389 | 5387 ft | 16 kts | 271° |
| 2026-05-03 23:04 | 39.85587 | -104.66544 | 5392 ft | 17 kts | 268° |
| 2026-05-03 23:05 | 39.85585 | -104.66694 | 5392 ft | 16 kts | 270° |
| 2026-05-03 23:05 | 39.85585 | -104.66834 | 5392 ft | 15 kts | 270° |
| 2026-05-03 23:05 | 39.85586 | -104.66972 | 5391 ft | 17 kts | 270° |
| 2026-05-03 23:05 | 39.85588 | -104.67142 | 5384 ft | 19 kts | 271° |
| 2026-05-03 23:06 | 39.85590 | -104.67305 | 5384 ft | 17 kts | 271° |
| 2026-05-03 23:06 | 39.85591 | -104.67406 | 5387 ft | 2 kts | 271° |
| 2026-05-03 23:06 | 39.85591 | -104.67431 | 5384 ft | 3 kts | 256° |
| 2026-05-03 23:06 | 39.85582 | -104.67455 | 5386 ft | 0 kts | 232° |
| 2026-05-03 23:07 | 39.85577 | -104.67465 | 5388 ft | 1 kts | 250° |
| 2026-05-03 23:07 | 39.85572 | -104.67492 | 5388 ft | 7 kts | 257° |
| 2026-05-03 23:07 | 39.85563 | -104.67581 | 5384 ft | 13 kts | 267° |
| 2026-05-03 23:08 | 39.85560 | -104.67706 | 5384 ft | 14 kts | 269° |
| 2026-05-03 23:08 | 39.85545 | -104.67790 | 5385 ft | 6 kts | 216° |
| 2026-05-03 23:08 | 39.85535 | -104.67797 | 5387 ft | 0 kts | 192° |
| 2026-05-03 23:09 | 39.85521 | -104.67801 | 5391 ft | 6 kts | 187° |
| 2026-05-03 23:09 | 39.85477 | -104.67804 | 5389 ft | 3 kts | 181° |
| 2026-05-03 23:09 | 39.85455 | -104.67804 | 5389 ft | 1 kts | 180° |